Startpagina
METAR-TAF:

METAR-TAF

Vliegvelden :

Luchthaven Bamako

Bamako, Mali

breedte: 12-32N, lengte: 007-57W, hoogte: 380 m

Actueel weer

Dit bericht is 44 minuten geleden gemaakt, om 12:30 UTC
Wind 11 kt uit het oostnoordoosten, variërend tussen het noordnoordoosten en het oosten
Temperatuur 33°C
Vochtigheid 26%
Druk 1014 hPa
Zicht 10 km of meer
geen wolken onder 1500 m en geen cumulonimbus

METAR: GABS 191230Z 06011KT 030V100 CAVOK 33/11 Q1014 NOSIG

Tijdstip: 13:14 (13:14 UTC)

Verwachting

Dit bericht is 2 uur en het 14 minuten geleden gemaakt, om 11:00 UTC
Verwachting geldig van 19 om 12 UTC tot 20 om 18 UTC
Wind 10 kt uit het noordnoordoosten
Zicht 10 km of meer
geen wolken onder 1500 m en geen cumulonimbus

TAF: GABS 191100Z 1912/2018 02010KT CAVOK

Waarnemingen en weersverwachtingen van meer dan 4000 vliegvelden (METAR en TAF).

De beschikbare stations zijn de gele en rode punten op de kaart.

Ga met uw muis naar het station om de naam te zien.

Klik dan om waarnemingen en weersverwachtingen te zien.

kaart wijzigen: klik op de groene knoppen met een zwart kruis om in te zoomen, op de groene knop met een streepje om uit te zoomen of op de groene pijlen voor aangrenzende kaarten.


METAR-TAF: